Time;durP1;ratioP1;P1;durP2;ratioP2;P2;SDS_P1;SDS_P2;PMS_P1;PMS_P2;Temp;Humidity;BMP_temperature;BMP_pressure;BME280_temperature;BME280_humidity;BME280_pressure;Samples;Min_cycle;Max_cycle;Signal;HPM_P1;HPM_P2
2023/11/15 00:02:02;;;;;;;;;;;;;;;16.68;46.22;100238.78;5093381;28;876;-40
2023/11/15 00:04:27;;;;;;;;;;;;;;;16.44;46.91;100237.13;5084343;28;1141;-41
2023/11/15 00:06:52;;;;;;;;;;;;;;;16.27;47.28;100234.03;5082887;28;1938;-42
2023/11/15 00:09:18;;;;;;;;;;;;;;;17.32;45.01;100227.38;5084229;28;1043;-42
2023/11/15 00:11:44;;;;;;;;;;;;;;;16.86;45.75;100217.81;5094535;28;1445;-40
2023/11/15 00:14:09;;;;;;;;;;;;;;;16.54;46.75;100218.63;5096291;28;843;-41
2023/11/15 00:16:35;;;;;;;;;;;;;;;16.34;46.99;100213.13;5129963;27;1142;-38
2023/11/15 00:19:03;;;;;;;;;;;;;;;17.15;45.41;100213.69;5096411;28;1982;-40
2023/11/15 00:21:28;;;;;;;;;;;;;;;17.06;45.43;100214.44;5096781;28;1089;-39
2023/11/15 00:23:54;;;;;;;;;;;;;;;16.63;46.31;100207.25;5096582;28;1097;-39
2023/11/15 00:26:19;;;;;;;;;;;;;;;16.44;46.67;100204.41;5095792;28;864;-38
2023/11/15 00:28:52;;;;;;;;;;;;;;;16.79;46.48;100206.00;5095179;28;1280;-42
2023/11/15 00:31:18;;;;;;;;;;;;;;;17.34;44.63;100213.00;5096455;28;1027;-40
2023/11/15 00:33:45;;;;;;;;;;;;;;;16.73;46.29;100210.00;5096814;28;1122;-38
2023/11/15 00:36:11;;;;;;;;;;;;;;;16.48;46.73;100204.03;5128927;27;2411;-39
2023/11/15 00:38:38;;;;;;;;;;;;;;;16.78;46.53;100199.00;5096734;28;1058;-40
2023/11/15 00:41:04;;;;;;;;;;;;;;;17.48;44.50;100192.38;5129087;27;1902;-45
2023/11/15 00:43:29;;;;;;;;;;;;;;;16.87;45.99;100184.94;5096449;28;1046;-43
2023/11/15 00:45:55;;;;;;;;;;;;;;;16.60;46.66;100173.00;5096405;28;1082;-40
2023/11/15 00:48:20;;;;;;;;;;;;;;;16.39;47.12;100163.19;5111206;28;1057;-40
2023/11/15 00:50:46;;;;;;;;;;;;;;;17.14;45.66;100164.19;5094367;28;1034;-44
2023/11/15 00:53:13;;;;;;;;;;;;;;;17.10;45.48;100163.59;5096092;28;1002;-41
2023/11/15 00:55:38;;;;;;;;;;;;;;;16.66;46.61;100158.38;5095876;28;1073;-44
2023/11/15 00:58:07;;;;;;;;;;;;;;;16.88;46.11;100161.91;5095087;28;1094;-43
2023/11/15 01:00:39;;;;;;;;;;;;;;;17.24;45.02;100161.59;5096069;28;1982;-40
2023/11/15 01:03:05;;;;;;;;;;;;;;;16.69;46.28;100154.59;5095906;28;1054;-38
2023/11/15 01:05:30;;;;;;;;;;;;;;;16.49;46.86;100143.81;5094697;28;1361;-44
2023/11/15 01:07:57;;;;;;;;;;;;;;;17.19;45.43;100145.19;5102542;28;2674;-42
2023/11/15 01:10:24;;;;;;;;;;;;;;;17.05;45.49;100141.03;5096071;28;1111;-43
2023/11/15 01:12:51;;;;;;;;;;;;;;;16.64;46.43;100131.09;5095784;28;1081;-45
2023/11/15 01:15:16;;;;;;;;;;;;;;;16.48;46.90;100131.53;5095867;28;1190;-37
2023/11/15 01:17:42;;;;;;;;;;;;;;;17.45;44.67;100116.34;5094898;28;1325;-42
2023/11/15 01:20:08;;;;;;;;;;;;;;;16.86;45.93;100113.34;5095032;28;1980;-37
2023/11/15 01:22:34;;;;;;;;;;;;;;;16.66;46.74;100121.19;5096165;28;1154;-38
2023/11/15 01:24:59;;;;;;;;;;;;;;;17.60;44.42;100108.84;5095385;28;1085;-39
2023/11/15 01:27:25;;;;;;;;;;;;;;;16.98;45.66;100108.81;5095956;28;1276;-39
2023/11/15 01:29:51;;;;;;;;;;;;;;;16.67;46.50;100109.59;5096134;28;1185;-42
2023/11/15 01:32:16;;;;;;;;;;;;;;;16.53;46.92;100108.09;5095479;28;1027;-40
2023/11/15 01:34:42;;;;;;;;;;;;;;;17.27;45.45;100104.69;5095505;28;1153;-38
2023/11/15 01:37:07;;;;;;;;;;;;;;;16.91;45.86;100097.88;5094093;28;2444;-40
2023/11/15 01:39:33;;;;;;;;;;;;;;;16.59;46.72;100101.41;5094877;28;1969;-47
2023/11/15 01:41:58;;;;;;;;;;;;;;;16.61;46.87;100095.03;5095995;28;951;-39
2023/11/15 01:44:24;;;;;;;;;;;;;;;17.30;44.86;100096.44;5098836;28;1153;-37
2023/11/15 01:46:50;;;;;;;;;;;;;;;16.74;46.17;100109.91;5099375;28;979;-38
2023/11/15 01:49:19;;;;;;;;;;;;;;;16.70;46.61;100116.47;5099219;28;1174;-39
2023/11/15 01:51:45;;;;;;;;;;;;;;;17.45;44.87;100119.00;5098005;28;1441;-37
2023/11/15 01:54:10;;;;;;;;;;;;;;;16.85;45.92;100128.44;5105970;28;1130;-38
2023/11/15 01:56:36;;;;;;;;;;;;;;;16.57;46.73;100122.78;5105514;28;1030;-37
2023/11/15 01:59:02;;;;;;;;;;;;;;;16.61;46.74;100118.94;5115001;28;1905;-37
2023/11/15 02:01:29;;;;;;;;;;;;;;;17.42;44.98;100105.13;5097738;28;1116;-38
2023/11/15 02:03:54;;;;;;;;;;;;;;;16.81;45.85;100102.28;5099348;28;1026;-38
2023/11/15 02:06:20;;;;;;;;;;;;;;;16.61;46.36;100099.47;5136630;27;2243;-38
2023/11/15 02:08:46;;;;;;;;;;;;;;;16.34;47.01;100101.66;5097793;28;1115;-38
2023/11/15 02:11:12;;;;;;;;;;;;;;;17.02;45.86;100099.59;5099136;28;1212;-39
2023/11/15 02:13:37;;;;;;;;;;;;;;;17.00;45.59;100098.88;5098818;28;1130;-39
2023/11/15 02:16:04;;;;;;;;;;;;;;;16.58;46.54;100097.09;5132151;27;1100;-38
2023/11/15 02:18:30;;;;;;;;;;;;;;;16.79;46.53;100089.13;5098054;28;1272;-41
2023/11/15 02:20:56;;;;;;;;;;;;;;;17.25;44.98;100094.16;5097744;28;1979;-41
2023/11/15 02:23:21;;;;;;;;;;;;;;;16.72;46.43;100085.28;5098949;28;1137;-45
2023/11/15 02:25:51;;;;;;;;;;;;;;;16.44;46.81;100098.22;5098800;28;1018;-39
2023/11/15 02:28:17;;;;;;;;;;;;;;;16.33;47.33;100107.09;5131898;27;1275;-39
2023/11/15 02:30:42;;;;;;;;;;;;;;;17.36;45.03;100103.88;5098679;28;1146;-40
2023/11/15 02:33:08;;;;;;;;;;;;;;;16.82;46.12;100107.47;5098627;28;1006;-38
2023/11/15 02:35:33;;;;;;;;;;;;;;;16.49;46.93;100102.19;5098467;28;1066;-39
2023/11/15 02:37:59;;;;;;;;;;;;;;;17.01;45.98;100092.63;5096550;28;1963;-45
2023/11/15 02:40:24;;;;;;;;;;;;;;;17.34;44.94;100095.19;5097805;28;1981;-39
2023/11/15 02:42:50;;;;;;;;;;;;;;;16.75;46.21;100088.53;5084963;28;1011;-45
2023/11/15 02:45:16;;;;;;;;;;;;;;;16.46;47.01;100085.69;5098824;28;1073;-38
2023/11/15 02:47:42;;;;;;;;;;;;;;;16.52;47.09;100086.00;5084825;28;924;-39
2023/11/15 02:50:08;;;;;;;;;;;;;;;17.36;44.83;100080.78;5096655;28;1094;-39
2023/11/15 02:52:35;;;;;;;;;;;;;;;16.72;46.20;100078.19;5098326;28;1090;-44
2023/11/15 02:55:01;;;;;;;;;;;;;;;17.07;45.87;100085.91;5097955;28;1049;-37
2023/11/15 02:57:27;;;;;;;;;;;;;;;17.06;45.44;100090.41;5098357;28;1046;-41
2023/11/15 02:59:52;;;;;;;;;;;;;;;16.65;46.34;100087.63;5131496;27;1976;-38
2023/11/15 03:02:18;;;;;;;;;;;;;;;16.47;46.79;100088.19;5097686;28;1212;-38
2023/11/15 03:04:43;;;;;;;;;;;;;;;16.50;47.03;100084.44;5096529;28;1112;-39
2023/11/15 03:07:09;;;;;;;;;;;;;;;17.56;44.62;100078.19;5102523;28;2449;-39
2023/11/15 03:09:34;;;;;;;;;;;;;;;16.92;45.69;100074.78;5097024;28;1254;-38
2023/11/15 03:12:00;;;;;;;;;;;;;;;16.58;46.48;100073.19;5097715;28;1145;-38
2023/11/15 03:14:26;;;;;;;;;;;;;;;16.39;47.29;100077.38;5088186;28;1018;-37
2023/11/15 03:16:52;;;;;;;;;;;;;;;17.32;45.25;100058.09;5096495;28;1070;-38
2023/11/15 03:19:17;;;;;;;;;;;;;;;16.84;46.02;100048.88;5097633;28;1897;-37
2023/11/15 03:21:43;;;;;;;;;;;;;;;16.53;46.54;100050.50;5084264;28;1162;-37
2023/11/15 03:24:09;;;;;;;;;;;;;;;16.34;47.24;100055.69;5079158;28;1101;-38
2023/11/15 03:26:35;;;;;;;;;;;;;;;17.20;45.45;100054.69;5109033;28;1152;-38
2023/11/15 03:29:01;;;;;;;;;;;;;;;17.12;45.52;100035.91;5097400;28;1046;-37
2023/11/15 03:31:26;;;;;;;;;;;;;;;16.68;46.32;100041.38;5097518;28;1106;-37
2023/11/15 03:33:52;;;;;;;;;;;;;;;16.42;47.15;100037.31;5085546;28;1141;-37
2023/11/15 03:36:18;;;;;;;;;;;;;;;16.38;47.16;100035.88;5090795;28;2335;-37
2023/11/15 03:38:43;;;;;;;;;;;;;;;17.40;44.97;100019.38;5079254;28;995;-38
2023/11/15 03:41:12;;;;;;;;;;;;;;;16.81;46.23;100018.13;5082268;28;1913;-38
2023/11/15 03:43:39;;;;;;;;;;;;;;;16.51;46.92;100015.31;5084925;28;979;-40
2023/11/15 03:46:04;;;;;;;;;;;;;;;16.35;47.26;100026.34;5090116;28;1130;-41
2023/11/15 03:48:30;;;;;;;;;;;;;;;17.46;44.71;100024.13;5089603;28;991;-41
2023/11/15 03:50:56;;;;;;;;;;;;;;;16.95;45.90;100019.56;5091868;28;1065;-42
2023/11/15 03:53:21;;;;;;;;;;;;;;;16.56;46.73;100033.50;5100116;28;1200;-41
2023/11/15 03:55:47;;;;;;;;;;;;;;;16.38;47.13;100019.97;5097511;28;1196;-40
2023/11/15 03:58:13;;;;;;;;;;;;;;;16.59;46.71;100011.13;5096848;28;1014;-39
2023/11/15 04:00:38;;;;;;;;;;;;;;;17.23;45.27;100017.19;5106581;28;1898;-42
2023/11/15 04:03:04;;;;;;;;;;;;;;;16.67;46.55;100026.41;5077746;28;1106;-42
2023/11/15 04:05:30;;;;;;;;;;;;;;;16.39;46.84;100030.44;5094982;28;979;-41
2023/11/15 04:07:56;;;;;;;;;;;;;;;16.75;46.60;100026.59;5055519;28;2488;-40
2023/11/15 04:10:22;;;;;;;;;;;;;;;17.35;44.93;100027.75;5109231;28;1267;-41
2023/11/15 04:12:52;;;;;;;;;;;;;;;16.77;46.30;100022.84;5129577;27;1070;-44
2023/11/15 04:15:17;;;;;;;;;;;;;;;16.50;46.66;100028.69;5094968;28;1139;-42
2023/11/15 04:17:43;;;;;;;;;;;;;;;17.22;45.40;100031.47;5096914;28;1045;-43
2023/11/15 04:20:10;;;;;;;;;;;;;;;17.13;45.32;100035.75;5094954;28;1966;-39
2023/11/15 04:22:35;;;;;;;;;;;;;;;16.63;46.39;100047.91;5096298;28;1205;-43
2023/11/15 04:25:01;;;;;;;;;;;;;;;16.41;47.28;100054.22;5096643;28;1053;-41
2023/11/15 04:27:28;;;;;;;;;;;;;;;17.36;45.10;100048.88;5096313;28;1074;-45
2023/11/15 04:29:54;;;;;;;;;;;;;;;16.86;46.08;100049.59;5096576;28;1002;-45
2023/11/15 04:32:19;;;;;;;;;;;;;;;16.53;46.65;100042.53;5096874;28;1074;-42
2023/11/15 04:34:45;;;;;;;;;;;;;;;16.37;47.06;100027.06;5096607;28;1121;-45
2023/11/15 04:37:11;;;;;;;;;;;;;;;17.14;45.72;100028.66;5096986;28;2282;-43
2023/11/15 04:39:36;;;;;;;;;;;;;;;17.16;45.29;100024.03;5096096;28;1914;-42
2023/11/15 04:42:02;;;;;;;;;;;;;;;16.70;46.19;100016.38;5096091;28;1065;-42
2023/11/15 04:44:27;;;;;;;;;;;;;;;17.12;45.75;100012.84;5096241;28;1086;-42
2023/11/15 04:46:53;;;;;;;;;;;;;;;17.28;45.04;100002.69;5096600;28;1109;-45
2023/11/15 04:49:18;;;;;;;;;;;;;;;16.75;46.51;99997.38;5085229;28;923;-46
2023/11/15 04:51:44;;;;;;;;;;;;;;;16.52;46.81;100003.69;5084589;28;948;-43
2023/11/15 04:54:10;;;;;;;;;;;;;;;16.39;47.09;100006.56;5096286;28;1041;-44
2023/11/15 04:56:36;;;;;;;;;;;;;;;17.08;45.88;99995.44;5095860;28;1100;-45
2023/11/15 04:59:01;;;;;;;;;;;;;;;17.34;44.98;99994.16;5095710;28;902;-40
2023/11/15 05:01:27;;;;;;;;;;;;;;;16.83;46.46;99991.44;5095914;28;1905;-42
2023/11/15 05:03:52;;;;;;;;;;;;;;;16.52;47.11;99986.91;5096027;28;895;-44
2023/11/15 05:06:18;;;;;;;;;;;;;;;17.58;44.89;99984.97;5098759;28;1937;-46
2023/11/15 05:08:44;;;;;;;;;;;;;;;17.10;45.53;99974.09;5096436;28;1111;-44
2023/11/15 05:11:09;;;;;;;;;;;;;;;16.70;46.69;99973.88;5095789;28;1079;-51
2023/11/15 05:13:35;;;;;;;;;;;;;;;16.49;47.00;99974.75;5082377;28;1045;-47
2023/11/15 05:16:00;;;;;;;;;;;;;;;16.42;47.53;99984.22;5093013;28;914;-49
2023/11/15 05:18:26;;;;;;;;;;;;;;;17.53;44.89;99995.19;5088687;28;1501;-44
2023/11/15 05:20:54;;;;;;;;;;;;;;;16.96;45.84;99985.88;5094471;28;1905;-44
2023/11/15 05:23:19;;;;;;;;;;;;;;;16.58;46.83;99974.94;5091053;28;1166;-45
2023/11/15 05:25:45;;;;;;;;;;;;;;;16.38;47.41;99975.66;5074640;28;1115;-44
2023/11/15 05:28:11;;;;;;;;;;;;;;;16.27;47.23;99975.72;5083413;28;899;-42
2023/11/15 05:30:36;;;;;;;;;;;;;;;16.95;46.24;99962.97;5097407;28;1050;-39
2023/11/15 05:33:02;;;;;;;;;;;;;;;16.56;46.76;99963.59;5099765;28;1093;-38
2023/11/15 05:35:27;;;;;;;;;;;;;;;15.95;47.35;99958.84;5085879;28;1149;-36
2023/11/15 05:37:53;;;;;;;;;;;;;;;15.70;46.82;99955.56;5082285;28;2661;-36
2023/11/15 05:40:18;;;;;;;;;;;;;;;15.63;45.98;99957.88;5086207;28;1973;-41
2023/11/15 05:42:44;;;;;;;;;;;;;;;15.42;45.78;99955.16;5099100;28;1085;-38
2023/11/15 05:45:10;;;;;;;;;;;;;;;15.43;45.24;99952.41;5078767;28;1344;-38
2023/11/15 05:47:37;;;;;;;;;;;;;;;15.35;44.94;99959.31;5081179;28;1413;-37
2023/11/15 05:50:09;;;;;;;;;;;;;;;15.16;45.33;99947.53;5099407;28;1096;-38
2023/11/15 05:52:38;;;;;;;;;;;;;;;15.11;45.26;99947.06;5098579;28;949;-38
2023/11/15 05:55:07;;;;;;;;;;;;;;;15.01;44.86;99945.13;5099323;28;1175;-41
2023/11/15 05:57:32;;;;;;;;;;;;;;;14.99;44.68;99939.13;5076676;28;1426;-47
2023/11/15 05:59:58;;;;;;;;;;;;;;;15.01;44.38;99941.66;5078901;28;1917;-46
2023/11/15 06:02:24;;;;;;;;;;;;;;;14.92;44.24;99937.91;5092769;28;1089;-41
2023/11/15 06:04:52;;;;;;;;;;;;;;;14.83;44.43;99934.16;5096602;28;856;-41
2023/11/15 06:07:18;;;;;;;;;;;;;;;14.79;44.24;99936.22;5085151;28;1866;-39
2023/11/15 06:09:43;;;;;;;;;;;;;;;14.73;44.41;99926.06;5086434;28;1053;-42
2023/11/15 06:12:09;;;;;;;;;;;;;;;14.71;44.62;99921.88;5097790;28;1020;-44
2023/11/15 06:14:35;;;;;;;;;;;;;;;14.65;44.09;99913.44;5084475;28;1037;-40
2023/11/15 06:17:00;;;;;;;;;;;;;;;14.63;44.29;99919.84;5085319;28;1465;-38
2023/11/15 06:19:26;;;;;;;;;;;;;;;14.55;44.38;99912.47;5084342;28;1901;-42
2023/11/15 06:21:51;;;;;;;;;;;;;;;14.50;44.40;99922.56;5097078;28;1277;-45
2023/11/15 06:24:16;;;;;;;;;;;;;;;15.26;46.00;99921.97;5097640;28;1469;-44
2023/11/15 06:26:43;;;;;;;;;;;;;;;15.02;45.55;99915.03;5090938;28;1084;-45
2023/11/15 06:29:08;;;;;;;;;;;;;;;14.78;45.85;99921.25;5087553;28;894;-42
2023/11/15 06:31:36;;;;;;;;;;;;;;;14.74;44.92;99916.34;5083497;28;1138;-39
2023/11/15 06:34:02;;;;;;;;;;;;;;;14.63;44.91;99917.19;5097616;28;1058;-43
2023/11/15 06:36:28;;;;;;;;;;;;;;;14.56;44.92;99911.53;5081026;28;1903;-40
2023/11/15 06:38:54;;;;;;;;;;;;;;;14.62;44.41;99889.88;5084861;28;1365;-41
2023/11/15 06:41:20;;;;;;;;;;;;;;;14.60;44.14;99885.69;5092428;28;1905;-44
2023/11/15 06:43:45;;;;;;;;;;;;;;;14.47;44.26;99878.69;5088340;28;1049;-39
2023/11/15 06:46:15;;;;;;;;;;;;;;;14.52;44.23;99881.81;5092570;28;1011;-39
2023/11/15 06:48:42;;;;;;;;;;;;;;;14.48;43.78;99884.81;5097356;28;1030;-39
2023/11/15 06:51:08;;;;;;;;;;;;;;;14.44;43.79;99877.13;5094579;28;989;-43
2023/11/15 06:53:34;;;;;;;;;;;;;;;14.39;43.57;99860.75;5097244;28;1058;-47
2023/11/15 06:55:59;;;;;;;;;;;;;;;14.40;43.55;99867.72;5081654;28;1118;-39
2023/11/15 06:58:25;;;;;;;;;;;;;;;14.35;43.60;99877.81;5073498;28;1035;-40
2023/11/15 07:00:52;;;;;;;;;;;;;;;14.33;43.78;99877.09;5096500;28;1941;-41
2023/11/15 07:03:17;;;;;;;;;;;;;;;14.33;43.37;99872.66;5095341;28;1105;-40
2023/11/15 07:05:48;;;;;;;;;;;;;;;15.05;44.33;99867.09;5090716;28;1138;-43
2023/11/15 07:08:14;;;;;;;;;;;;;;;14.57;44.90;99858.47;5072769;28;1138;-41
2023/11/15 07:10:42;;;;;;;;;;;;;;;14.57;44.46;99860.28;5048485;28;1319235;-41
2023/11/15 07:13:08;;;;;;;;;;;;;;;14.43;44.65;99864.03;5097376;28;1019;-41
2023/11/15 07:15:38;;;;;;;;;;;;;;;14.36;44.55;99876.03;5097805;28;1177;-41
2023/11/15 07:18:03;;;;;;;;;;;;;;;14.45;43.72;99877.94;5097360;28;1026;-44
2023/11/15 07:20:29;;;;;;;;;;;;;;;14.28;44.13;99866.88;5097815;28;1980;-42
2023/11/15 07:22:54;;;;;;;;;;;;;;;14.30;43.95;99869.41;5097157;28;1106;-43
2023/11/15 07:25:20;;;;;;;;;;;;;;;14.17;43.77;99880.94;5097677;28;1018;-40
2023/11/15 07:27:45;;;;;;;;;;;;;;;14.31;43.77;99873.75;5097166;28;1047;-42
2023/11/15 07:30:12;;;;;;;;;;;;;;;14.16;43.49;99873.13;5097436;28;1105;-40
2023/11/15 07:32:38;;;;;;;;;;;;;;;14.13;43.72;99868.06;5097537;28;1209;-40
2023/11/15 07:35:04;;;;;;;;;;;;;;;14.13;43.62;99857.50;5096961;28;1034;-42
2023/11/15 07:37:30;;;;;;;;;;;;;;;14.38;44.18;99850.31;5109430;28;1892;-42
2023/11/15 07:39:56;;;;;;;;;;;;;;;14.68;45.29;99841.72;5095698;28;1906;-42
2023/11/15 07:42:21;;;;;;;;;;;;;;;14.43;44.82;99848.16;5096614;28;1038;-45
2023/11/15 07:44:49;;;;;;;;;;;;;;;14.30;44.60;99850.88;5097090;28;1058;-41
2023/11/15 07:47:17;;;;;;;;;;;;;;;14.26;44.42;99842.38;5097383;28;1087;-46
2023/11/15 07:49:42;;;;;;;;;;;;;;;14.18;44.25;99842.94;5096915;28;1201;-42
2023/11/15 07:52:08;;;;;;;;;;;;;;;14.26;43.82;99841.50;5096715;28;1030;-43
2023/11/15 07:54:33;;;;;;;;;;;;;;;14.18;43.74;99840.28;5096963;28;1031;-46
2023/11/15 07:56:59;;;;;;;;;;;;;;;14.15;43.64;99840.53;5097185;28;1138;-45
2023/11/15 07:59:25;;;;;;;;;;;;;;;14.50;44.27;99836.09;5096673;28;1905;-46
2023/11/15 08:01:51;;;;;;;;;;;;;;;14.75;45.78;99835.94;5096839;28;1030;-45
2023/11/15 08:04:18;;;;;;;;;;;;;;;14.49;45.60;99844.16;5096258;28;1181;-49
2023/11/15 08:06:43;;;;;;;;;;;;;;;14.31;45.25;99829.59;5101730;28;1828;-42
2023/11/15 08:09:17;;;;;;;;;;;;;;;14.30;44.54;99827.06;5096373;28;1312;-46
2023/11/15 08:11:45;;;;;;;;;;;;;;;14.22;44.27;99829.47;5096264;28;1142;-49
2023/11/15 08:14:10;;;;;;;;;;;;;;;14.25;44.14;99824.78;5096461;28;1062;-44
2023/11/15 08:16:36;;;;;;;;;;;;;;;14.18;44.12;99828.91;5125770;27;1113;-46
2023/11/15 08:19:01;;;;;;;;;;;;;;;15.34;45.17;99831.25;5096403;28;1106;-45
2023/11/15 08:21:28;;;;;;;;;;;;;;;14.70;46.05;99846.91;5096648;28;1898;-45
2023/11/15 08:23:54;;;;;;;;;;;;;;;14.45;45.87;99836.47;5096901;28;1026;-43
2023/11/15 08:26:19;;;;;;;;;;;;;;;14.37;45.00;99835.38;5096306;28;1104;-43
2023/11/15 08:28:47;;;;;;;;;;;;;;;14.31;44.60;99836.72;5096131;28;1069;-45
2023/11/15 08:31:15;;;;;;;;;;;;;;;14.28;44.38;99845.72;5096256;28;1062;-42
2023/11/15 08:33:44;;;;;;;;;;;;;;;14.24;44.15;99833.69;5095372;28;1097;-42
2023/11/15 08:36:10;;;;;;;;;;;;;;;14.24;44.28;99836.34;5085850;28;2241;-47
2023/11/15 08:38:36;;;;;;;;;;;;;;;14.20;43.71;99824.31;5103531;28;1111;-43
2023/11/15 08:41:02;;;;;;;;;;;;;;;14.55;44.67;99820.69;5094453;28;1959;-44
2023/11/15 08:43:27;;;;;;;;;;;;;;;14.75;45.53;99820.06;5096630;28;1141;-43
2023/11/15 08:45:54;;;;;;;;;;;;;;;14.42;45.85;99817.34;5096195;28;1154;-41
2023/11/15 08:48:20;;;;;;;;;;;;;;;14.39;44.96;99815.78;5095911;28;1154;-46
2023/11/15 08:50:46;;;;;;;;;;;;;;;14.25;44.85;99814.22;5096743;28;1063;-41
2023/11/15 08:53:11;;;;;;;;;;;;;;;14.29;44.32;99809.53;5095247;28;1117;-38
2023/11/15 08:55:37;;;;;;;;;;;;;;;14.26;44.29;99813.25;5096035;28;1006;-43
2023/11/15 08:58:05;;;;;;;;;;;;;;;14.21;43.88;99815.44;5083256;28;1305;-43
2023/11/15 09:00:31;;;;;;;;;;;;;;;14.12;43.64;99809.03;5088097;28;1925;-43
2023/11/15 09:02:57;;;;;;;;;;;;;;;14.13;43.86;99809.88;5096050;28;1081;-44
2023/11/15 09:05:24;;;;;;;;;;;;;;;15.23;45.23;99808.28;5095117;28;1023;-45
2023/11/15 09:07:50;;;;;;;;;;;;;;;14.55;45.81;99807.47;5096020;28;1807;-44
2023/11/15 09:10:16;;;;;;;;;;;;;;;14.42;45.39;99806.75;5095376;28;1152;-44
2023/11/15 09:12:44;;;;;;;;;;;;;;;14.38;45.03;99803.50;5096244;28;1074;-42
2023/11/15 09:15:13;;;;;;;;;;;;;;;14.29;44.65;99802.44;5095835;28;1026;-42
2023/11/15 09:17:45;;;;;;;;;;;;;;;14.93;45.63;99793.94;5095649;28;894;-42
2023/11/15 09:20:12;;;;;;;;;;;;;;;14.62;45.60;99788.44;5095478;28;1906;-39
2023/11/15 09:22:38;;;;;;;;;;;;;;;14.47;45.61;99793.16;5095390;28;1026;-43
2023/11/15 09:25:06;;;;;;;;;;;;;;;14.46;44.89;99771.16;5082600;28;952;-42
2023/11/15 09:27:32;;;;;;;;;;;;;;;14.32;44.67;99769.59;5095286;28;1081;-43
2023/11/15 09:29:58;;;;;;;;;;;;;;;14.32;44.24;99773.09;5090119;28;1034;-43
2023/11/15 09:32:25;;;;;;;;;;;;;;;14.22;44.36;99774.78;5094152;28;1035;-38
2023/11/15 09:34:52;;;;;;;;;;;;;;;13.33;44.11;99637.00;5095665;28;1033;-41
2023/11/15 09:37:17;;;;;;;;;;;;;;;14.17;43.97;99766.34;5076724;28;1807;-42
2023/11/15 09:39:44;;;;;;;;;;;;;;;14.20;43.78;99759.03;5078398;28;1902;-43
2023/11/15 09:42:09;;;;;;;;;;;;;;;14.16;44.02;99754.94;5078994;28;1247;-39
2023/11/15 09:44:35;;;;;;;;;;;;;;;14.11;43.99;99751.81;5075878;28;1129;-41
2023/11/15 09:47:03;;;;;;;;;;;;;;;15.15;45.27;99749.78;5086534;28;1106;-46
2023/11/15 09:49:29;;;;;;;;;;;;;;;14.52;45.73;99744.19;5076754;28;1065;-40
2023/11/15 09:51:59;;;;;;;;;;;;;;;14.43;45.28;99747.59;5078712;28;1391;-44
2023/11/15 09:54:24;;;;;;;;;;;;;;;14.35;44.63;99756.13;5084163;28;1129;-41
2023/11/15 09:56:50;;;;;;;;;;;;;;;14.26;44.96;99756.88;5086609;28;1156;-42
2023/11/15 09:59:15;;;;;;;;;;;;;;;14.31;44.15;99760.00;5085000;28;1102;-42
2023/11/15 10:01:44;;;;;;;;;;;;;;;14.18;44.33;99763.59;5095368;28;1938;-42
2023/11/15 10:04:39;;;;;;;;;;;;;;;14.21;43.99;99765.16;5096444;28;1185;-40
2023/11/15 10:07:04;;;;;;;;;;;;;;;14.19;44.10;99765.28;5097709;28;1855;-41
2023/11/15 10:09:39;;;;;;;;;;;;;;;14.12;43.87;99756.16;5099050;28;1010;-42
2023/11/15 10:12:08;;;;;;;;;;;;;;;14.04;43.93;99751.47;5092664;28;1225;-41
2023/11/15 10:14:35;;;;;;;;;;;;;;;14.05;43.74;99752.28;5098564;28;1098;-43
2023/11/15 10:17:03;;;;;;;;;;;;;;;13.97;44.11;99742.31;5098760;28;1186;-39
2023/11/15 10:19:28;;;;;;;;;;;;;;;15.11;45.16;99740.44;5098737;28;1963;-40
2023/11/15 10:21:55;;;;;;;;;;;;;;;14.49;45.49;99733.84;5098814;28;1014;-39
2023/11/15 10:24:22;;;;;;;;;;;;;;;14.32;45.39;99741.34;5098256;28;1220;-41
2023/11/15 10:26:47;;;;;;;;;;;;;;;14.24;45.19;99727.88;5098494;28;1134;-41
2023/11/15 10:29:12;;;;;;;;;;;;;;;14.24;44.62;99738.47;5098151;28;1086;-41
2023/11/15 10:31:51;;;;;;;;;;;;;;;14.22;44.21;99742.19;5098660;28;1130;-39
2023/11/15 10:34:17;;;;;;;;;;;;;;;15.18;45.05;99733.66;5099085;28;943;-38
2023/11/15 10:36:42;;;;;;;;;;;;;;;14.54;45.84;99725.53;5098274;28;1843;-40
2023/11/15 10:39:11;;;;;;;;;;;;;;;14.42;45.40;99722.94;5098532;28;1205;-37
2023/11/15 10:41:38;;;;;;;;;;;;;;;14.38;45.13;99725.94;5097955;28;1909;-42
2023/11/15 10:44:07;;;;;;;;;;;;;;;14.30;44.93;99727.38;5096874;28;1098;-40
2023/11/15 10:46:32;;;;;;;;;;;;;;;14.22;44.84;99723.66;5098444;28;1118;-38
2023/11/15 10:48:58;;;;;;;;;;;;;;;14.11;44.84;99738.59;5097037;28;1197;-36
2023/11/15 10:51:35;;;;;;;;;;;;;;;14.96;45.26;99724.84;5097540;28;1039;-37
2023/11/15 10:54:01;;;;;;;;;;;;;;;14.60;45.58;99727.69;5096813;28;1090;-37
2023/11/15 10:56:26;;;;;;;;;;;;;;;14.36;45.38;99741.94;5098395;28;1062;-39
2023/11/15 10:58:52;;;;;;;;;;;;;;;14.30;45.23;99734.47;5096865;28;1123;-38
2023/11/15 11:01:18;;;;;;;;;;;;;;;14.31;44.51;99731.72;5096272;28;1976;-44
2023/11/15 11:03:49;;;;;;;;;;;;;;;14.30;44.09;99732.69;5098089;28;1121;-41
2023/11/15 11:06:36;;;;;;;;;;;;;;;14.17;44.48;99737.25;5097203;28;2361;-43
2023/11/15 11:09:03;;;;;;;;;;;;;;;14.12;44.40;99734.13;5122405;27;1136;-43
2023/11/15 11:12:01;;;;;;;;;;;;;;;14.18;43.82;99736.31;5091901;28;1223;-42
2023/11/15 11:14:27;;;;;;;;;;;;;;;14.10;43.95;99733.44;5084546;28;1360;-45
2023/11/15 11:16:59;;;;;;;;;;;;;;;14.05;44.18;99737.28;5080493;28;1332;-43
2023/11/15 11:19:27;;;;;;;;;;;;;;;14.04;44.03;99740.03;5096210;28;1910;-45
2023/11/15 11:24:25;;;;;;;;;;;;;;;15.05;45.47;99739.97;5085860;28;1027;-43
2023/11/15 11:26:52;;;;;;;;;;;;;;;14.59;46.11;99741.91;5097251;28;1130;-41
2023/11/15 11:29:18;;;;;;;;;;;;;;;14.45;45.69;99751.78;5096189;28;1035;-42
2023/11/15 11:32:00;;;;;;;;;;;;;;;14.29;45.21;99752.19;5097244;28;1050;-44
2023/11/15 11:34:25;;;;;;;;;;;;;;;14.32;44.66;99748.44;5096251;28;1026;-45
2023/11/15 11:36:53;;;;;;;;;;;;;;;14.20;44.73;99753.72;5096968;28;1839;-43
2023/11/15 11:39:37;;;;;;;;;;;;;;;14.17;44.10;99758.41;5097350;28;1077;-39
2023/11/15 11:42:02;;;;;;;;;;;;;;;14.18;44.38;99776.00;5096671;28;1014;-39
2023/11/15 11:44:28;;;;;;;;;;;;;;;14.05;44.39;99770.78;5097077;28;1090;-43
2023/11/15 11:47:01;;;;;;;;;;;;;;;14.59;45.27;99778.94;5096014;28;1130;-38
2023/11/15 11:49:27;;;;;;;;;;;;;;;14.59;45.46;99776.31;5097073;28;1038;-39
2023/11/15 11:51:53;;;;;;;;;;;;;;;14.31;45.41;99789.91;5097094;28;1069;-41
2023/11/15 11:54:23;;;;;;;;;;;;;;;14.28;45.15;99794.63;5095986;28;1053;-41
2023/11/15 11:56:49;;;;;;;;;;;;;;;14.22;44.59;99789.78;5097037;28;1002;-38
2023/11/15 11:59:14;;;;;;;;;;;;;;;14.22;44.67;99800.38;5096814;28;1110;-38
2023/11/15 12:01:46;;;;;;;;;;;;;;;14.07;44.75;99804.13;5096082;28;1905;-39
2023/11/15 12:04:11;;;;;;;;;;;;;;;14.04;44.41;99812.28;5096708;28;1124;-40
2023/11/15 12:06:38;;;;;;;;;;;;;;;14.06;44.20;99820.91;5103721;28;1891;-38
2023/11/15 12:09:04;;;;;;;;;;;;;;;14.06;44.29;99820.09;5099394;28;1074;-42
2023/11/15 12:11:29;;;;;;;;;;;;;;;14.08;44.03;99829.59;5095211;28;1270;-38
2023/11/15 12:13:57;;;;;;;;;;;;;;;14.40;44.86;99835.97;5096436;28;1058;-38
2023/11/15 12:16:23;;;;;;;;;;;;;;;15.04;45.67;99844.25;5096637;28;1046;-46
2023/11/15 12:19:01;;;;;;;;;;;;;;;14.56;46.34;99848.00;5096044;28;867;-45
2023/11/15 12:21:27;;;;;;;;;;;;;;;14.35;46.26;99839.97;5096778;28;1914;-45
2023/11/15 12:23:53;;;;;;;;;;;;;;;14.34;45.42;99833.81;5129311;27;1146;-39
2023/11/15 12:26:18;;;;;;;;;;;;;;;14.22;45.52;99843.56;5096119;28;1087;-41
2023/11/15 12:28:44;;;;;;;;;;;;;;;14.22;45.16;99856.78;5096087;28;1135;-38
2023/11/15 12:31:09;;;;;;;;;;;;;;;14.53;45.85;99861.50;5095391;28;1135;-41
2023/11/15 12:33:36;;;;;;;;;;;;;;;14.72;46.60;99860.88;5095121;28;1082;-43
2023/11/15 12:36:02;;;;;;;;;;;;;;;14.49;46.62;99862.69;5092133;28;1878;-45
2023/11/15 12:38:29;;;;;;;;;;;;;;;14.33;45.77;99869.16;5091217;28;1377;-43
2023/11/15 12:41:01;;;;;;;;;;;;;;;14.30;45.42;99869.41;5079984;28;1905;-38
2023/11/15 12:43:30;;;;;;;;;;;;;;;14.32;45.05;99870.97;5096036;28;869;-41
2023/11/15 12:46:03;;;;;;;;;;;;;;;14.23;45.22;99871.69;5096441;28;998;-38
2023/11/15 12:48:29;;;;;;;;;;;;;;;14.15;45.13;99885.50;5096108;28;1117;-42
2023/11/15 12:51:01;;;;;;;;;;;;;;;15.21;47.01;99896.81;5096076;28;1089;-45
2023/11/15 12:53:30;;;;;;;;;;;;;;;14.71;47.30;99900.69;5095817;28;970;-38